sensor_id;sensor_type;location;lat;lon;timestamp;temperature;humidity
15916;DHT22;8057;47.830;-3.870;2023-04-08T00:00:58;8.30;99.90
15916;DHT22;8057;47.830;-3.870;2023-04-08T00:05:09;8.30;99.90
15916;DHT22;8057;47.830;-3.870;2023-04-08T00:09:18;8.30;99.90
15916;DHT22;8057;47.830;-3.870;2023-04-08T00:13:28;8.20;99.90
15916;DHT22;8057;47.830;-3.870;2023-04-08T00:17:37;8.20;99.90
15916;DHT22;8057;47.830;-3.870;2023-04-08T00:21:48;8.20;99.90
15916;DHT22;8057;47.830;-3.870;2023-04-08T00:25:57;8.20;99.90
15916;DHT22;8057;47.830;-3.870;2023-04-08T00:30:07;8.20;99.90
15916;DHT22;8057;47.830;-3.870;2023-04-08T00:34:16;8.10;99.90
15916;DHT22;8057;47.830;-3.870;2023-04-08T00:38:27;8.00;99.90
15916;DHT22;8057;47.830;-3.870;2023-04-08T00:42:37;8.00;99.90
15916;DHT22;8057;47.830;-3.870;2023-04-08T00:46:46;7.90;99.90
15916;DHT22;8057;47.830;-3.870;2023-04-08T00:50:56;7.80;99.90
15916;DHT22;8057;47.830;-3.870;2023-04-08T00:55:07;7.70;99.90
15916;DHT22;8057;47.830;-3.870;2023-04-08T00:59:17;7.60;99.90
15916;DHT22;8057;47.830;-3.870;2023-04-08T01:03:34;7.60;99.90
15916;DHT22;8057;47.830;-3.870;2023-04-08T01:07:48;7.60;99.90
15916;DHT22;8057;47.830;-3.870;2023-04-08T01:12:04;7.60;99.90
15916;DHT22;8057;47.830;-3.870;2023-04-08T01:16:16;7.50;99.90
15916;DHT22;8057;47.830;-3.870;2023-04-08T01:20:26;7.50;99.90
15916;DHT22;8057;47.830;-3.870;2023-04-08T01:24:39;7.60;99.90
15916;DHT22;8057;47.830;-3.870;2023-04-08T01:28:53;7.60;99.90
15916;DHT22;8057;47.830;-3.870;2023-04-08T01:33:04;7.60;99.90
15916;DHT22;8057;47.830;-3.870;2023-04-08T01:37:14;7.60;99.90
15916;DHT22;8057;47.830;-3.870;2023-04-08T01:41:24;7.60;99.90
15916;DHT22;8057;47.830;-3.870;2023-04-08T01:45:34;7.60;99.90
15916;DHT22;8057;47.830;-3.870;2023-04-08T01:49:44;7.60;99.90
15916;DHT22;8057;47.830;-3.870;2023-04-08T01:53:54;7.60;99.90
15916;DHT22;8057;47.830;-3.870;2023-04-08T01:58:05;7.60;99.90
15916;DHT22;8057;47.830;-3.870;2023-04-08T02:02:18;7.60;99.90
15916;DHT22;8057;47.830;-3.870;2023-04-08T02:06:28;7.60;99.90
15916;DHT22;8057;47.830;-3.870;2023-04-08T02:10:38;7.50;99.90
15916;DHT22;8057;47.830;-3.870;2023-04-08T02:14:47;7.50;99.90
15916;DHT22;8057;47.830;-3.870;2023-04-08T02:19:05;7.50;99.90
15916;DHT22;8057;47.830;-3.870;2023-04-08T02:23:19;7.50;99.90
15916;DHT22;8057;47.830;-3.870;2023-04-08T02:27:31;7.50;99.90
15916;DHT22;8057;47.830;-3.870;2023-04-08T02:31:42;7.50;99.90
15916;DHT22;8057;47.830;-3.870;2023-04-08T02:35:54;7.50;99.90
15916;DHT22;8057;47.830;-3.870;2023-04-08T02:40:09;7.60;99.90
15916;DHT22;8057;47.830;-3.870;2023-04-08T02:44:29;7.50;99.90
15916;DHT22;8057;47.830;-3.870;2023-04-08T02:48:39;7.50;99.90
15916;DHT22;8057;47.830;-3.870;2023-04-08T02:52:49;7.50;99.90
15916;DHT22;8057;47.830;-3.870;2023-04-08T02:56:58;7.50;99.90
15916;DHT22;8057;47.830;-3.870;2023-04-08T03:01:08;7.50;99.90
15916;DHT22;8057;47.830;-3.870;2023-04-08T03:05:17;7.40;99.90
15916;DHT22;8057;47.830;-3.870;2023-04-08T03:09:28;7.40;99.90
15916;DHT22;8057;47.830;-3.870;2023-04-08T03:13:37;7.30;99.90
15916;DHT22;8057;47.830;-3.870;2023-04-08T03:17:47;7.40;99.90
15916;DHT22;8057;47.830;-3.870;2023-04-08T03:21:56;7.30;99.90
15916;DHT22;8057;47.830;-3.870;2023-04-08T03:26:06;7.30;99.90
15916;DHT22;8057;47.830;-3.870;2023-04-08T03:30:16;7.40;99.90
15916;DHT22;8057;47.830;-3.870;2023-04-08T03:34:25;7.30;99.90
15916;DHT22;8057;47.830;-3.870;2023-04-08T03:38:34;7.30;99.90
15916;DHT22;8057;47.830;-3.870;2023-04-08T03:42:45;7.30;99.90
15916;DHT22;8057;47.830;-3.870;2023-04-08T03:46:54;7.30;99.90
15916;DHT22;8057;47.830;-3.870;2023-04-08T03:51:03;7.30;99.90
15916;DHT22;8057;47.830;-3.870;2023-04-08T03:55:13;7.30;99.90
15916;DHT22;8057;47.830;-3.870;2023-04-08T03:59:23;7.20;99.90
15916;DHT22;8057;47.830;-3.870;2023-04-08T04:03:33;7.20;99.90
15916;DHT22;8057;47.830;-3.870;2023-04-08T04:07:42;7.30;99.90
15916;DHT22;8057;47.830;-3.870;2023-04-08T04:11:51;7.30;99.90
15916;DHT22;8057;47.830;-3.870;2023-04-08T04:16:02;7.20;99.90
15916;DHT22;8057;47.830;-3.870;2023-04-08T04:20:11;7.20;99.90
15916;DHT22;8057;47.830;-3.870;2023-04-08T04:24:21;7.20;99.90
15916;DHT22;8057;47.830;-3.870;2023-04-08T04:28:30;7.20;99.90
15916;DHT22;8057;47.830;-3.870;2023-04-08T04:32:40;7.20;99.90
15916;DHT22;8057;47.830;-3.870;2023-04-08T04:36:50;7.10;99.90
15916;DHT22;8057;47.830;-3.870;2023-04-08T04:40:59;7.10;99.90
15916;DHT22;8057;47.830;-3.870;2023-04-08T04:45:09;7.20;99.90
15916;DHT22;8057;47.830;-3.870;2023-04-08T04:49:20;7.20;99.90
15916;DHT22;8057;47.830;-3.870;2023-04-08T04:53:29;7.20;99.90
15916;DHT22;8057;47.830;-3.870;2023-04-08T04:57:39;7.20;99.90
15916;DHT22;8057;47.830;-3.870;2023-04-08T05:01:48;7.10;99.90
15916;DHT22;8057;47.830;-3.870;2023-04-08T05:05:59;7.10;99.90
15916;DHT22;8057;47.830;-3.870;2023-04-08T05:10:09;7.10;99.90
15916;DHT22;8057;47.830;-3.870;2023-04-08T05:14:18;7.00;99.90
15916;DHT22;8057;47.830;-3.870;2023-04-08T05:18:27;7.00;99.90
15916;DHT22;8057;47.830;-3.870;2023-04-08T05:22:38;7.00;99.90
15916;DHT22;8057;47.830;-3.870;2023-04-08T05:26:47;7.00;99.90
15916;DHT22;8057;47.830;-3.870;2023-04-08T05:30:59;6.90;99.90
15916;DHT22;8057;47.830;-3.870;2023-04-08T05:35:09;6.90;99.90
15916;DHT22;8057;47.830;-3.870;2023-04-08T05:39:20;6.90;99.90
15916;DHT22;8057;47.830;-3.870;2023-04-08T05:43:29;6.80;99.90
15916;DHT22;8057;47.830;-3.870;2023-04-08T05:47:40;6.80;99.90
15916;DHT22;8057;47.830;-3.870;2023-04-08T05:51:49;6.80;99.90
15916;DHT22;8057;47.830;-3.870;2023-04-08T05:56:00;6.80;99.90
15916;DHT22;8057;47.830;-3.870;2023-04-08T06:00:10;6.80;99.90
15916;DHT22;8057;47.830;-3.870;2023-04-08T06:04:19;6.80;99.90
15916;DHT22;8057;47.830;-3.870;2023-04-08T06:08:28;6.80;99.90
15916;DHT22;8057;47.830;-3.870;2023-04-08T06:12:39;6.80;99.90
15916;DHT22;8057;47.830;-3.870;2023-04-08T06:16:48;6.80;99.90
15916;DHT22;8057;47.830;-3.870;2023-04-08T06:20:57;6.90;99.90
15916;DHT22;8057;47.830;-3.870;2023-04-08T06:25:07;6.90;99.90
15916;DHT22;8057;47.830;-3.870;2023-04-08T06:29:18;7.00;99.90
15916;DHT22;8057;47.830;-3.870;2023-04-08T06:33:27;7.00;99.90
15916;DHT22;8057;47.830;-3.870;2023-04-08T06:37:36;7.10;99.90
15916;DHT22;8057;47.830;-3.870;2023-04-08T06:41:45;7.20;99.90
15916;DHT22;8057;47.830;-3.870;2023-04-08T06:45:56;7.30;99.90
15916;DHT22;8057;47.830;-3.870;2023-04-08T06:50:06;7.40;99.90
15916;DHT22;8057;47.830;-3.870;2023-04-08T06:54:15;7.50;99.90
15916;DHT22;8057;47.830;-3.870;2023-04-08T06:58:24;7.60;99.90
15916;DHT22;8057;47.830;-3.870;2023-04-08T07:02:35;7.80;99.90
15916;DHT22;8057;47.830;-3.870;2023-04-08T07:06:44;7.90;99.90
15916;DHT22;8057;47.830;-3.870;2023-04-08T07:10:54;8.00;99.90
15916;DHT22;8057;47.830;-3.870;2023-04-08T07:15:04;8.20;99.90
15916;DHT22;8057;47.830;-3.870;2023-04-08T07:19:14;8.30;99.90
15916;DHT22;8057;47.830;-3.870;2023-04-08T07:23:24;8.40;99.90
15916;DHT22;8057;47.830;-3.870;2023-04-08T07:27:33;8.60;99.90
15916;DHT22;8057;47.830;-3.870;2023-04-08T07:31:43;8.70;99.90
15916;DHT22;8057;47.830;-3.870;2023-04-08T07:35:53;9.00;99.90
15916;DHT22;8057;47.830;-3.870;2023-04-08T07:40:03;9.10;99.90
15916;DHT22;8057;47.830;-3.870;2023-04-08T07:44:13;9.30;99.90
15916;DHT22;8057;47.830;-3.870;2023-04-08T07:48:23;9.60;99.90
15916;DHT22;8057;47.830;-3.870;2023-04-08T07:52:34;9.90;99.90
15916;DHT22;8057;47.830;-3.870;2023-04-08T07:56:43;10.20;99.90
15916;DHT22;8057;47.830;-3.870;2023-04-08T08:00:53;10.60;99.90
15916;DHT22;8057;47.830;-3.870;2023-04-08T08:05:04;10.90;99.90
15916;DHT22;8057;47.830;-3.870;2023-04-08T08:09:15;11.20;99.90
15916;DHT22;8057;47.830;-3.870;2023-04-08T08:13:24;11.50;99.90
15916;DHT22;8057;47.830;-3.870;2023-04-08T08:17:34;11.80;99.90
15916;DHT22;8057;47.830;-3.870;2023-04-08T08:21:43;12.10;99.90
15916;DHT22;8057;47.830;-3.870;2023-04-08T08:26:00;12.60;99.90
15916;DHT22;8057;47.830;-3.870;2023-04-08T08:30:10;12.90;99.90
15916;DHT22;8057;47.830;-3.870;2023-04-08T08:34:19;13.20;99.90
15916;DHT22;8057;47.830;-3.870;2023-04-08T08:38:29;13.40;99.90
15916;DHT22;8057;47.830;-3.870;2023-04-08T08:42:40;13.60;99.90
15916;DHT22;8057;47.830;-3.870;2023-04-08T08:46:50;13.90;99.90
15916;DHT22;8057;47.830;-3.870;2023-04-08T08:50:59;14.20;99.90
15916;DHT22;8057;47.830;-3.870;2023-04-08T08:55:09;14.40;99.90
15916;DHT22;8057;47.830;-3.870;2023-04-08T08:59:40;14.60;99.90
15916;DHT22;8057;47.830;-3.870;2023-04-08T09:04:06;14.70;99.90
15916;DHT22;8057;47.830;-3.870;2023-04-08T09:08:34;14.80;99.90
15916;DHT22;8057;47.830;-3.870;2023-04-08T09:12:53;14.90;99.90
15916;DHT22;8057;47.830;-3.870;2023-04-08T09:17:04;14.80;99.90
15916;DHT22;8057;47.830;-3.870;2023-04-08T09:21:14;14.60;99.90
15916;DHT22;8057;47.830;-3.870;2023-04-08T09:25:25;14.80;99.90
15916;DHT22;8057;47.830;-3.870;2023-04-08T09:29:34;14.70;99.90
15916;DHT22;8057;47.830;-3.870;2023-04-08T09:33:48;14.40;99.90
15916;DHT22;8057;47.830;-3.870;2023-04-08T09:37:57;14.50;99.90
15916;DHT22;8057;47.830;-3.870;2023-04-08T09:42:09;14.50;99.90
15916;DHT22;8057;47.830;-3.870;2023-04-08T09:46:26;14.50;99.90
15916;DHT22;8057;47.830;-3.870;2023-04-08T09:50:42;14.70;99.90
15916;DHT22;8057;47.830;-3.870;2023-04-08T09:54:54;14.80;99.90
15916;DHT22;8057;47.830;-3.870;2023-04-08T09:59:09;15.00;99.90
15916;DHT22;8057;47.830;-3.870;2023-04-08T10:03:25;15.00;99.90
15916;DHT22;8057;47.830;-3.870;2023-04-08T10:07:37;15.10;99.90
15916;DHT22;8057;47.830;-3.870;2023-04-08T10:11:47;15.30;99.90
15916;DHT22;8057;47.830;-3.870;2023-04-08T10:16:18;15.10;99.90
15916;DHT22;8057;47.830;-3.870;2023-04-08T10:20:43;15.10;99.90
15916;DHT22;8057;47.830;-3.870;2023-04-08T10:29:39;15.00;99.90
15916;DHT22;8057;47.830;-3.870;2023-04-08T10:33:48;15.00;99.90
15916;DHT22;8057;47.830;-3.870;2023-04-08T10:37:58;15.10;99.90
15916;DHT22;8057;47.830;-3.870;2023-04-08T10:42:10;15.30;99.90
15916;DHT22;8057;47.830;-3.870;2023-04-08T10:46:21;15.20;99.90
15916;DHT22;8057;47.830;-3.870;2023-04-08T10:50:32;15.00;99.90
15916;DHT22;8057;47.830;-3.870;2023-04-08T10:54:46;14.70;99.90
15916;DHT22;8057;47.830;-3.870;2023-04-08T10:58:56;14.70;99.90
15916;DHT22;8057;47.830;-3.870;2023-04-08T11:03:09;14.80;99.90
15916;DHT22;8057;47.830;-3.870;2023-04-08T11:07:21;14.90;99.90
15916;DHT22;8057;47.830;-3.870;2023-04-08T11:11:33;14.90;99.90
15916;DHT22;8057;47.830;-3.870;2023-04-08T11:15:43;14.90;99.90
15916;DHT22;8057;47.830;-3.870;2023-04-08T11:19:54;15.20;99.90
15916;DHT22;8057;47.830;-3.870;2023-04-08T11:24:09;15.70;99.90
15916;DHT22;8057;47.830;-3.870;2023-04-08T11:28:19;15.80;99.90
15916;DHT22;8057;47.830;-3.870;2023-04-08T11:32:30;15.70;99.90
15916;DHT22;8057;47.830;-3.870;2023-04-08T11:36:41;15.80;99.90
15916;DHT22;8057;47.830;-3.870;2023-04-08T11:40:53;15.70;99.90
15916;DHT22;8057;47.830;-3.870;2023-04-08T11:45:09;15.40;99.90
15916;DHT22;8057;47.830;-3.870;2023-04-08T11:49:20;15.20;99.90
15916;DHT22;8057;47.830;-3.870;2023-04-08T11:53:31;15.40;99.90
15916;DHT22;8057;47.830;-3.870;2023-04-08T11:57:40;15.60;99.90
15916;DHT22;8057;47.830;-3.870;2023-04-08T12:01:50;15.70;99.90
15916;DHT22;8057;47.830;-3.870;2023-04-08T12:05:59;15.60;99.90
15916;DHT22;8057;47.830;-3.870;2023-04-08T12:10:11;15.50;99.90
15916;DHT22;8057;47.830;-3.870;2023-04-08T12:14:20;15.40;99.90
15916;DHT22;8057;47.830;-3.870;2023-04-08T12:18:34;15.60;99.90
15916;DHT22;8057;47.830;-3.870;2023-04-08T12:22:43;15.70;99.90
15916;DHT22;8057;47.830;-3.870;2023-04-08T12:26:54;15.80;99.90
15916;DHT22;8057;47.830;-3.870;2023-04-08T12:31:04;15.90;99.90
15916;DHT22;8057;47.830;-3.870;2023-04-08T12:35:13;15.80;99.90
15916;DHT22;8057;47.830;-3.870;2023-04-08T12:39:22;15.80;99.90
15916;DHT22;8057;47.830;-3.870;2023-04-08T12:43:33;15.90;99.90
15916;DHT22;8057;47.830;-3.870;2023-04-08T12:47:42;16.30;99.90
15916;DHT22;8057;47.830;-3.870;2023-04-08T12:51:52;16.30;99.90
15916;DHT22;8057;47.830;-3.870;2023-04-08T12:56:01;16.30;99.90
15916;DHT22;8057;47.830;-3.870;2023-04-08T13:00:13;16.20;99.90
15916;DHT22;8057;47.830;-3.870;2023-04-08T13:04:22;16.20;99.90
15916;DHT22;8057;47.830;-3.870;2023-04-08T13:08:31;16.00;99.90
15916;DHT22;8057;47.830;-3.870;2023-04-08T13:12:40;16.00;99.90
15916;DHT22;8057;47.830;-3.870;2023-04-08T13:16:51;15.90;99.90
15916;DHT22;8057;47.830;-3.870;2023-04-08T13:21:00;15.90;99.90
15916;DHT22;8057;47.830;-3.870;2023-04-08T13:25:09;15.90;99.90
15916;DHT22;8057;47.830;-3.870;2023-04-08T13:29:19;15.60;99.90
15916;DHT22;8057;47.830;-3.870;2023-04-08T13:33:29;15.60;99.90
15916;DHT22;8057;47.830;-3.870;2023-04-08T13:37:38;15.50;99.90
15916;DHT22;8057;47.830;-3.870;2023-04-08T13:41:47;15.40;99.90
15916;DHT22;8057;47.830;-3.870;2023-04-08T13:45:56;15.30;99.90
15916;DHT22;8057;47.830;-3.870;2023-04-08T13:50:08;15.40;99.90
15916;DHT22;8057;47.830;-3.870;2023-04-08T13:54:17;15.50;99.90
15916;DHT22;8057;47.830;-3.870;2023-04-08T13:58:26;15.60;99.90
15916;DHT22;8057;47.830;-3.870;2023-04-08T14:02:36;15.70;99.90
15916;DHT22;8057;47.830;-3.870;2023-04-08T14:06:46;15.60;99.90
15916;DHT22;8057;47.830;-3.870;2023-04-08T14:10:57;15.60;99.90
15916;DHT22;8057;47.830;-3.870;2023-04-08T14:15:07;15.60;99.90
15916;DHT22;8057;47.830;-3.870;2023-04-08T14:19:16;15.70;99.90
15916;DHT22;8057;47.830;-3.870;2023-04-08T14:23:27;15.60;99.90
15916;DHT22;8057;47.830;-3.870;2023-04-08T14:27:36;15.50;99.90
15916;DHT22;8057;47.830;-3.870;2023-04-08T14:32:03;15.60;99.90
15916;DHT22;8057;47.830;-3.870;2023-04-08T14:36:12;15.70;99.90
15916;DHT22;8057;47.830;-3.870;2023-04-08T14:40:23;15.90;99.90
15916;DHT22;8057;47.830;-3.870;2023-04-08T14:44:32;16.00;99.90
15916;DHT22;8057;47.830;-3.870;2023-04-08T14:48:41;15.90;99.90
15916;DHT22;8057;47.830;-3.870;2023-04-08T14:52:51;15.80;99.90
15916;DHT22;8057;47.830;-3.870;2023-04-08T14:57:01;15.70;99.90
15916;DHT22;8057;47.830;-3.870;2023-04-08T15:01:10;15.70;99.90
15916;DHT22;8057;47.830;-3.870;2023-04-08T15:05:19;15.80;99.90
15916;DHT22;8057;47.830;-3.870;2023-04-08T15:09:29;16.00;99.90
15916;DHT22;8057;47.830;-3.870;2023-04-08T15:13:39;16.10;99.90
15916;DHT22;8057;47.830;-3.870;2023-04-08T15:17:48;16.20;99.90
15916;DHT22;8057;47.830;-3.870;2023-04-08T15:21:58;16.20;99.90
15916;DHT22;8057;47.830;-3.870;2023-04-08T15:26:07;16.10;99.90
15916;DHT22;8057;47.830;-3.870;2023-04-08T15:30:18;16.30;99.90
15916;DHT22;8057;47.830;-3.870;2023-04-08T15:34:31;16.30;99.90
15916;DHT22;8057;47.830;-3.870;2023-04-08T15:38:40;16.30;99.90
15916;DHT22;8057;47.830;-3.870;2023-04-08T15:42:49;16.20;99.90
15916;DHT22;8057;47.830;-3.870;2023-04-08T15:46:59;16.30;99.90
15916;DHT22;8057;47.830;-3.870;2023-04-08T15:51:09;16.40;99.90
15916;DHT22;8057;47.830;-3.870;2023-04-08T15:55:19;16.30;99.90
15916;DHT22;8057;47.830;-3.870;2023-04-08T15:59:29;16.40;99.90
15916;DHT22;8057;47.830;-3.870;2023-04-08T16:03:40;16.30;99.90
15916;DHT22;8057;47.830;-3.870;2023-04-08T16:07:49;16.30;99.90
15916;DHT22;8057;47.830;-3.870;2023-04-08T16:11:58;16.30;99.90
15916;DHT22;8057;47.830;-3.870;2023-04-08T16:16:08;16.20;99.90
15916;DHT22;8057;47.830;-3.870;2023-04-08T16:20:20;16.10;99.90
15916;DHT22;8057;47.830;-3.870;2023-04-08T16:24:29;16.00;99.90
15916;DHT22;8057;47.830;-3.870;2023-04-08T16:28:38;16.00;99.90
15916;DHT22;8057;47.830;-3.870;2023-04-08T16:32:47;16.00;99.90
15916;DHT22;8057;47.830;-3.870;2023-04-08T16:36:58;15.90;99.90
15916;DHT22;8057;47.830;-3.870;2023-04-08T16:41:07;15.90;99.90
15916;DHT22;8057;47.830;-3.870;2023-04-08T16:45:17;15.80;99.90
15916;DHT22;8057;47.830;-3.870;2023-04-08T16:49:26;15.80;99.90
15916;DHT22;8057;47.830;-3.870;2023-04-08T16:53:37;15.80;99.90
15916;DHT22;8057;47.830;-3.870;2023-04-08T16:57:46;15.80;99.90
15916;DHT22;8057;47.830;-3.870;2023-04-08T17:01:55;15.80;99.90
15916;DHT22;8057;47.830;-3.870;2023-04-08T17:06:05;15.60;99.90
15916;DHT22;8057;47.830;-3.870;2023-04-08T17:10:16;15.30;99.90
15916;DHT22;8057;47.830;-3.870;2023-04-08T17:14:25;15.10;99.90
15916;DHT22;8057;47.830;-3.870;2023-04-08T17:18:34;15.00;99.90
15916;DHT22;8057;47.830;-3.870;2023-04-08T17:22:47;14.90;99.90
15916;DHT22;8057;47.830;-3.870;2023-04-08T17:26:58;14.70;99.90
15916;DHT22;8057;47.830;-3.870;2023-04-08T17:31:08;14.60;99.90
15916;DHT22;8057;47.830;-3.870;2023-04-08T17:35:17;14.50;99.90
15916;DHT22;8057;47.830;-3.870;2023-04-08T17:39:27;14.50;99.90
15916;DHT22;8057;47.830;-3.870;2023-04-08T17:43:39;14.40;99.90
15916;DHT22;8057;47.830;-3.870;2023-04-08T17:47:49;14.30;99.90
15916;DHT22;8057;47.830;-3.870;2023-04-08T17:51:58;14.20;99.90
15916;DHT22;8057;47.830;-3.870;2023-04-08T17:56:08;14.20;99.90
15916;DHT22;8057;47.830;-3.870;2023-04-08T18:00:19;14.20;99.90
15916;DHT22;8057;47.830;-3.870;2023-04-08T18:04:29;14.10;99.90
15916;DHT22;8057;47.830;-3.870;2023-04-08T18:08:39;14.00;99.90
15916;DHT22;8057;47.830;-3.870;2023-04-08T18:12:48;13.90;99.90
15916;DHT22;8057;47.830;-3.870;2023-04-08T18:17:15;13.80;99.90
15916;DHT22;8057;47.830;-3.870;2023-04-08T18:21:24;13.70;99.90
15916;DHT22;8057;47.830;-3.870;2023-04-08T18:25:33;13.60;99.90
15916;DHT22;8057;47.830;-3.870;2023-04-08T18:29:42;13.40;99.90
15916;DHT22;8057;47.830;-3.870;2023-04-08T18:33:53;13.30;99.90
15916;DHT22;8057;47.830;-3.870;2023-04-08T18:38:02;13.10;99.90
15916;DHT22;8057;47.830;-3.870;2023-04-08T18:42:12;13.00;99.90
15916;DHT22;8057;47.830;-3.870;2023-04-08T18:46:21;12.90;99.90
15916;DHT22;8057;47.830;-3.870;2023-04-08T18:50:32;12.80;99.90
15916;DHT22;8057;47.830;-3.870;2023-04-08T18:54:41;12.80;99.90
15916;DHT22;8057;47.830;-3.870;2023-04-08T18:58:52;12.70;99.90
15916;DHT22;8057;47.830;-3.870;2023-04-08T19:03:01;12.60;99.90
15916;DHT22;8057;47.830;-3.870;2023-04-08T19:07:15;12.40;99.90
15916;DHT22;8057;47.830;-3.870;2023-04-08T19:11:24;12.30;99.90
15916;DHT22;8057;47.830;-3.870;2023-04-08T19:15:35;12.20;99.90
15916;DHT22;8057;47.830;-3.870;2023-04-08T19:19:44;12.10;99.90
15916;DHT22;8057;47.830;-3.870;2023-04-08T19:23:55;12.00;99.90
15916;DHT22;8057;47.830;-3.870;2023-04-08T19:28:04;11.90;99.90
15916;DHT22;8057;47.830;-3.870;2023-04-08T19:32:15;11.80;99.90
15916;DHT22;8057;47.830;-3.870;2023-04-08T19:36:25;11.70;99.90
15916;DHT22;8057;47.830;-3.870;2023-04-08T19:40:36;11.60;99.90
15916;DHT22;8057;47.830;-3.870;2023-04-08T19:44:46;11.50;99.90
15916;DHT22;8057;47.830;-3.870;2023-04-08T19:48:55;11.30;99.90
15916;DHT22;8057;47.830;-3.870;2023-04-08T19:53:05;11.30;99.90
15916;DHT22;8057;47.830;-3.870;2023-04-08T19:57:16;11.20;99.90
15916;DHT22;8057;47.830;-3.870;2023-04-08T20:01:25;11.20;99.90
15916;DHT22;8057;47.830;-3.870;2023-04-08T20:05:34;11.10;99.90
15916;DHT22;8057;47.830;-3.870;2023-04-08T20:09:43;11.10;99.90
15916;DHT22;8057;47.830;-3.870;2023-04-08T20:13:54;11.00;99.90
15916;DHT22;8057;47.830;-3.870;2023-04-08T20:18:03;10.90;99.90
15916;DHT22;8057;47.830;-3.870;2023-04-08T20:22:12;10.90;99.90
15916;DHT22;8057;47.830;-3.870;2023-04-08T20:26:22;10.80;99.90
15916;DHT22;8057;47.830;-3.870;2023-04-08T20:30:32;10.70;99.90
15916;DHT22;8057;47.830;-3.870;2023-04-08T20:34:41;10.80;99.90
15916;DHT22;8057;47.830;-3.870;2023-04-08T20:38:51;10.70;99.90
15916;DHT22;8057;47.830;-3.870;2023-04-08T20:43:01;10.80;99.90
15916;DHT22;8057;47.830;-3.870;2023-04-08T20:47:11;10.70;99.90
15916;DHT22;8057;47.830;-3.870;2023-04-08T20:51:21;10.50;99.90
15916;DHT22;8057;47.830;-3.870;2023-04-08T20:55:30;10.50;99.90
15916;DHT22;8057;47.830;-3.870;2023-04-08T20:59:39;10.40;99.90
15916;DHT22;8057;47.830;-3.870;2023-04-08T21:03:49;10.30;99.90
15916;DHT22;8057;47.830;-3.870;2023-04-08T21:07:59;10.30;99.90
15916;DHT22;8057;47.830;-3.870;2023-04-08T21:12:08;10.30;99.90
15916;DHT22;8057;47.830;-3.870;2023-04-08T21:16:17;10.30;99.90
15916;DHT22;8057;47.830;-3.870;2023-04-08T21:20:28;10.30;99.90
15916;DHT22;8057;47.830;-3.870;2023-04-08T21:24:37;10.30;99.90
15916;DHT22;8057;47.830;-3.870;2023-04-08T21:28:46;10.20;99.90
15916;DHT22;8057;47.830;-3.870;2023-04-08T21:32:56;10.30;99.90
15916;DHT22;8057;47.830;-3.870;2023-04-08T21:37:07;10.30;99.90
15916;DHT22;8057;47.830;-3.870;2023-04-08T21:41:17;10.30;99.90
15916;DHT22;8057;47.830;-3.870;2023-04-08T21:45:26;10.30;99.90
15916;DHT22;8057;47.830;-3.870;2023-04-08T21:49:36;10.30;99.90
15916;DHT22;8057;47.830;-3.870;2023-04-08T21:53:47;10.20;99.90
15916;DHT22;8057;47.830;-3.870;2023-04-08T21:57:58;10.20;99.90
15916;DHT22;8057;47.830;-3.870;2023-04-08T22:02:07;10.30;99.90
15916;DHT22;8057;47.830;-3.870;2023-04-08T22:06:18;10.30;99.90
15916;DHT22;8057;47.830;-3.870;2023-04-08T22:10:40;10.20;99.90
15916;DHT22;8057;47.830;-3.870;2023-04-08T22:14:49;10.20;99.90
15916;DHT22;8057;47.830;-3.870;2023-04-08T22:18:58;10.20;99.90
15916;DHT22;8057;47.830;-3.870;2023-04-08T22:23:07;10.20;99.90
15916;DHT22;8057;47.830;-3.870;2023-04-08T22:27:18;10.20;99.90
15916;DHT22;8057;47.830;-3.870;2023-04-08T22:31:27;10.20;99.90
15916;DHT22;8057;47.830;-3.870;2023-04-08T22:35:36;10.10;99.90
15916;DHT22;8057;47.830;-3.870;2023-04-08T22:39:46;10.10;99.90
15916;DHT22;8057;47.830;-3.870;2023-04-08T22:43:56;10.10;99.90
15916;DHT22;8057;47.830;-3.870;2023-04-08T22:48:05;10.10;99.90
15916;DHT22;8057;47.830;-3.870;2023-04-08T22:52:15;10.10;99.90
15916;DHT22;8057;47.830;-3.870;2023-04-08T22:56:24;10.00;99.90
15916;DHT22;8057;47.830;-3.870;2023-04-08T23:00:36;10.00;99.90
15916;DHT22;8057;47.830;-3.870;2023-04-08T23:04:45;9.90;99.90
15916;DHT22;8057;47.830;-3.870;2023-04-08T23:08:55;9.90;99.90
15916;DHT22;8057;47.830;-3.870;2023-04-08T23:13:04;9.90;99.90
15916;DHT22;8057;47.830;-3.870;2023-04-08T23:17:14;9.90;99.90
15916;DHT22;8057;47.830;-3.870;2023-04-08T23:21:23;9.90;99.90
15916;DHT22;8057;47.830;-3.870;2023-04-08T23:25:34;9.90;99.90
15916;DHT22;8057;47.830;-3.870;2023-04-08T23:29:43;9.80;99.90
15916;DHT22;8057;47.830;-3.870;2023-04-08T23:33:54;9.80;99.90
15916;DHT22;8057;47.830;-3.870;2023-04-08T23:38:03;9.80;99.90
15916;DHT22;8057;47.830;-3.870;2023-04-08T23:42:12;9.80;99.90
15916;DHT22;8057;47.830;-3.870;2023-04-08T23:46:21;9.80;99.90
15916;DHT22;8057;47.830;-3.870;2023-04-08T23:50:32;9.90;99.90
15916;DHT22;8057;47.830;-3.870;2023-04-08T23:54:41;9.90;99.90
15916;DHT22;8057;47.830;-3.870;2023-04-08T23:58:51;9.90;99.90
